ニューヨーク/JFK の空港の天気 - METARとTAF

ジョン・F・ケネディ国際空港 ( KJFK / JFK ) - アメリカ ニューヨーク州ニューヨーク
飛行場実況気象(Metar)
観測時間08/14 00:51 EDT (08/14 04:51 UTC)
風向・風速北東 2m/s
視程10km以上
天気現象弱い雨
少しの雲 雲底高度 400m
全天の8割程度の雲 雲底高度 3660m
全天の8割程度の雲 雲底高度 4880m
全天を覆う雲 雲底高度 7620m
気温23.3℃
湿度94%
気圧1017.6hPa
METARKJFK 140451Z 05004KT 9SM -RA FEW013 BKN120 BKN160 OVC250 23/22 A3005 RMK AO2 RAB43 SLP176 P0000 T02330222 402670233
過去の天気等 Google飛行場航空写真 Wunderground天気予報

過去48時間のMETAR

飛行場予報(TAF)
発表時間: 8/13 22:38 EDT (8/14 02:38 UTC)
予報対象時間: 13日23時 EDT ~ 15日2時 EDT
風向・風速東北東 3m/s
視程10km以上
全天の4割程度の雲 雲底高度 430m
全天の8割程度の雲 雲底高度 7620m
14日2時 EDT ~ 14日6時 EDT に一時的に
全天の8割程度の雲 雲底高度 460m
14日8時 EDT から
風向・風速北東 2m/s
視程10km以上
全天の4割程度の雲 雲底高度 150m
全天の8割程度の雲 雲底高度 1220m
全天の8割程度の雲 雲底高度 4570m
14日12時 EDT から
風向・風速東 5m/s
視程10km以上
全天の4割程度の雲 雲底高度 910m
全天の8割程度の雲 雲底高度 1370m
14日22時 EDT から
風向・風速東北東 3m/s
視程10km以上
全天の4割程度の雲 雲底高度 1220m
KJFK 140238Z 1403/1506 06005KT P6SM SCT014 BKN250
TEMPO 1406/1410 BKN015
FM141200 05004KT P6SM SCT005 BKN040 BKN150
FM141600 10009KT P6SM SCT030 BKN045
FM150200 06005KT P6SM SCT040